METAR AND TAF INFORMATION
METAR FOR EKRN
ADDS - METARS form results

(2211 UTC 20 February 2020)
Data provider http://aviationweather.gov/metar/data/
 
METAR text: EKRN 202150Z AUTO 19022KT 9999 FEW010/// OVC043/// 06/05 Q1004
Conditions at: EKRN (RONNE , DK) observed 2150 UTC 20 February 2020
Temperature: 6.0°C (43°F)
Dewpoint: 5.0°C (41°F) [RH = 93%]
Pressure (altimeter): 29.65 inches Hg (1004.0 mb)
Winds: from the S (190 degrees) at 25 MPH (22 knots; 11.3 m/s)
Visibility: 6 or more miles (10+ km)
Ceiling: 4300 feet AGL
Clouds: few clouds at 1000 feet AGL
overcast cloud deck at 4300 feet AGL
Weather: no significant weather observed at this time

METAR text: EKRN 202120Z AUTO 19023KT 9999 FEW009/// OVC045/// 06/06 Q1004
Conditions at: EKRN (RONNE , DK) observed 2120 UTC 20 February 2020
Temperature: 6.0°C (43°F)
Dewpoint: 6.0°C (43°F) [RH = 100%]
Pressure (altimeter): 29.65 inches Hg (1004.0 mb)
Winds: from the S (190 degrees) at 26 MPH (23 knots; 11.8 m/s)
Visibility: 6 or more miles (10+ km)
Ceiling: 4500 feet AGL
Clouds: few clouds at 900 feet AGL
overcast cloud deck at 4500 feet AGL
Weather: no significant weather observed at this time

Forecast for: EKRN (RONNE , DK)
Text: TAF EKRN 201726Z 2018/2023 19015KT 8000 BKN012
Forecast period: 1800 to 2300 UTC 20 February 2020
Forecast type: FROM: standard forecast or significant change
Winds: from the S (190 degrees) at 17 MPH (15 knots; 7.7 m/s)
Visibility: 5 miles (8 km)
Ceiling: 1200 feet AGL
Clouds: broken clouds at 1200 feet AGL
Weather: no significant weather forecast for this period
Text: TEMPO 2018/2023 20018G28KT 4000 RADZ BKN005
Forecast period: 1800 to 2300 UTC 20 February 2020
Forecast type: TEMPORARY: The following changes expected for less than half the time period
Winds: from the SSW (200 degrees) at 21 MPH (18 knots; 9.3 m/s)
gusting to 32 MPH (28 knots; 14.4 m/s)
Visibility: 2.49 miles (4.01 km)
Ceiling: 500 feet AGL
Clouds: broken clouds at 500 feet AGL
Weather: RA DZ  (moderate rain, moderate drizzle)

 AIRPORT MAP

 RUNWAY INFORMATION
Runway 11 Runway length 6568 ft Runway width 148 ft
Runway elevation 46 ft Runway displaced threshold 0 ft Runway heading 114
Runway 29 Runway length 6568 ft Runway width 148 ft
Runway elevation 51 ft Runway displaced threshold 0 ft Runway heading 294

 AIRPORT FREQUENCIES
Type APP/TWR Name Frequency 118.325 MHZ
Type MISC Name HANDLING Frequency 131.55 MHZ

 AIRPORT NEAR NAVIGATION AIDS
Type TACAN Name Ronne Frequency 112000 KHZ
Type VOR-DME Name Ronne Frequency 112000 KHZ



Powered by Virtual Airlines Manager [v2.6.2]